createdAt,value
2023-05-11T00:30:16.443Z,1.3
2023-05-11T01:00:34.718Z,1.8
2023-05-11T01:30:51.724Z,1.6
2023-05-11T02:01:09.260Z,1.5
2023-05-11T02:31:24.989Z,2.1
2023-05-11T03:01:42.477Z,1.7
2023-05-11T03:32:00.257Z,2
2023-05-11T04:02:18.558Z,2.2
2023-05-11T04:32:36.866Z,1.8
2023-05-11T05:02:55.608Z,2.1
2023-05-11T05:33:16.272Z,2.5
2023-05-11T06:03:36.158Z,2.5
2023-05-11T06:33:55.952Z,2.9
2023-05-11T07:04:21.275Z,2
2023-05-11T07:34:40.268Z,2.6
2023-05-11T08:04:58.608Z,2.5
2023-05-11T08:35:17.354Z,2.5
2023-05-11T09:05:34.275Z,3.1
2023-05-11T09:35:54.318Z,3.3
2023-05-11T10:06:14.118Z,3.9
2023-05-11T10:36:32.596Z,4
2023-05-11T11:06:54.438Z,3.6
2023-05-11T11:37:10.419Z,3
2023-05-11T12:37:41.388Z,4.1
2023-05-11T13:07:59.302Z,4.2
2023-05-11T13:38:15.936Z,5.5
2023-05-11T14:08:38.687Z,3.4
2023-05-11T14:38:57.350Z,2
2023-05-11T15:09:15.932Z,2.3
2023-05-11T15:39:30.924Z,4
2023-05-11T16:09:45.511Z,4.4
2023-05-11T16:40:04.647Z,5
2023-05-11T17:10:21.548Z,5.7
2023-05-11T17:40:38.358Z,7.3
2023-05-11T18:10:54.287Z,7
2023-05-11T18:41:11.361Z,6.9
2023-05-11T19:11:28.644Z,6
2023-05-11T19:41:44.198Z,4.1
2023-05-11T20:12:00.141Z,5.2
2023-05-11T20:42:23.896Z,5.9
2023-05-11T21:42:58.724Z,6.9
2023-05-11T22:13:14.552Z,7.3
2023-05-11T22:43:32.075Z,5.7
2023-05-11T23:13:53.813Z,5.6
2023-05-11T23:44:11.769Z,6.4
